Time;durP1;ratioP1;P1;durP2;ratioP2;P2;SDS_P1;SDS_P2;PMS_P1;PMS_P2;Temp;Humidity;BMP_temperature;BMP_pressure;BME280_temperature;BME280_humidity;BME280_pressure;Samples;Min_cycle;Max_cycle;Signal;HPM_P1;HPM_P2
2022/12/02 00:00:28;;;;;;;;;;;;;;;;;;4995715;28;19925;-95
2022/12/02 00:02:54;;;;;;;;;;;;;;;;;;4995847;28;20324;-95
2022/12/02 00:05:20;;;;;;;;;;;;;;;;;;4995488;28;19929;-93
2022/12/02 00:07:46;;;;;;;;;;;;;;;;;;4995301;28;19976;-94
2022/12/02 00:10:12;;;;;;;;;;;;;;;;;;4999301;28;19941;-95
2022/12/02 00:12:38;;;;;;;;;;;;;;;;;;4999606;28;19922;-94
2022/12/02 00:15:04;;;;;;;;;;;;;;;;;;4998959;28;19922;-95
2022/12/02 00:17:33;;;;;;;;;;;;;;;;;;5015724;28;19980;-94
2022/12/02 00:19:59;;;;;;;;;;;;;;;;;;4999229;28;19929;-94
2022/12/02 00:22:25;;;;;;;;;;;;;;;;;;4998686;28;19976;-94
2022/12/02 00:24:51;;;;;;;;;;;;;;;;;;4998681;28;20004;-94
2022/12/02 00:27:17;;;;;;;;;;;;;;;;;;4998895;28;19976;-94
2022/12/02 00:29:43;;;;;;;;;;;;;;;;;;4998720;28;19977;-94
2022/12/02 00:32:09;;;;;;;;;;;;;;;;;;4999072;28;19922;-94
2022/12/02 00:34:35;;;;;;;;;;;;;;;;;;4998807;28;19988;-94
2022/12/02 00:37:01;;;;;;;;;;;;;;;;;;4998773;28;20007;-94
2022/12/02 00:39:26;;;;;;;;;;;;;;;;;;4998683;28;19940;-94
2022/12/02 00:41:52;;;;;;;;;;;;;;;;;;4998672;28;20280;-94
2022/12/02 00:47:03;;;;;;;;;;;;;;;;;;5015174;28;19928;-94
2022/12/02 00:49:29;;;;;;;;;;;;;;;;;;4998775;28;19922;-94
2022/12/02 00:51:55;;;;;;;;;;;;;;;;;;4998288;28;20365;-94
2022/12/02 00:54:21;;;;;;;;;;;;;;;;;;4999100;28;20373;-95
2022/12/02 00:56:47;;;;;;;;;;;;;;;;;;4998538;28;20357;-95
2022/12/02 00:59:13;;;;;;;;;;;;;;;;;;4998838;28;19933;-95
2022/12/02 01:01:43;;;;;;;;;;;;;;;;;;4998650;28;19922;-95
2022/12/02 01:04:09;;;;;;;;;;;;;;;;;;4998680;28;19984;-94
2022/12/02 01:06:38;;;;;;;;;;;;;;;;;;5015130;28;19922;-95
2022/12/02 01:09:04;;;;;;;;;;;;;;;;;;4998092;28;19928;-94
2022/12/02 01:11:30;;;;;;;;;;;;;;;;;;4998209;28;20035;-94
2022/12/02 01:13:55;;;;;;;;;;;;;;;;;;4997898;28;19967;-94
2022/12/02 01:16:24;;;;;;;;;;;;;;;;;;5014790;28;19925;-93
2022/12/02 01:18:50;;;;;;;;;;;;;;;;;;4997733;28;20288;-96
2022/12/02 01:21:16;;;;;;;;;;;;;;;;;;4997622;28;20273;-95
2022/12/02 01:23:42;;;;;;;;;;;;;;;;;;4998455;28;19975;-95
2022/12/02 01:26:08;;;;;;;;;;;;;;;;;;4997731;28;20384;-94
2022/12/02 01:28:34;;;;;;;;;;;;;;;;;;4998062;28;19921;-95
2022/12/02 01:31:00;;;;;;;;;;;;;;;;;;4997847;28;19932;-95
2022/12/02 01:33:26;;;;;;;;;;;;;;;;;;4997353;28;19921;-96
2022/12/02 01:35:53;;;;;;;;;;;;;;;;;;4998481;28;19964;-95
2022/12/02 01:38:19;;;;;;;;;;;;;;;;;;4998359;28;20324;-96
2022/12/02 01:40:45;;;;;;;;;;;;;;;;;;4997830;28;19921;-96
2022/12/02 01:43:11;;;;;;;;;;;;;;;;;;4998143;28;19928;-96
2022/12/02 01:45:37;;;;;;;;;;;;;;;;;;4997836;28;19925;-96
2022/12/02 01:48:03;;;;;;;;;;;;;;;;;;4998008;28;19975;-95
2022/12/02 01:50:29;;;;;;;;;;;;;;;;;;4997921;28;19934;-95
2022/12/02 01:52:55;;;;;;;;;;;;;;;;;;4997706;28;19930;-96
2022/12/02 01:55:24;;;;;;;;;;;;;;;;;;4997484;28;20117;-96
2022/12/02 01:57:50;;;;;;;;;;;;;;;;;;4997508;28;20254;-96
2022/12/02 02:00:15;;;;;;;;;;;;;;;;;;4997786;28;19932;-96
2022/12/02 02:02:41;;;;;;;;;;;;;;;;;;4997968;28;19922;-94
2022/12/02 02:05:07;;;;;;;;;;;;;;;;;;4997185;28;19928;-94
2022/12/02 02:07:33;;;;;;;;;;;;;;;;;;4997196;28;19975;-95
2022/12/02 02:09:59;;;;;;;;;;;;;;;;;;4996925;28;20023;-95
2022/12/02 02:12:25;;;;;;;;;;;;;;;;;;4997454;28;20397;-94
2022/12/02 02:14:54;;;;;;;;;;;;;;;;;;4997268;28;19929;-94
2022/12/02 02:17:20;;;;;;;;;;;;;;;;;;4996969;28;19921;-96
2022/12/02 02:19:46;;;;;;;;;;;;;;;;;;4996934;28;19921;-94
2022/12/02 02:22:12;;;;;;;;;;;;;;;;;;4996855;28;19922;-93
2022/12/02 02:24:38;;;;;;;;;;;;;;;;;;4997287;28;19921;-93
2022/12/02 02:27:04;;;;;;;;;;;;;;;;;;4996860;28;19964;-94
2022/12/02 02:29:30;;;;;;;;;;;;;;;;;;4996739;28;19927;-94
2022/12/02 02:31:56;;;;;;;;;;;;;;;;;;4996896;28;19926;-94
2022/12/02 02:34:22;;;;;;;;;;;;;;;;;;4996827;28;20300;-94
2022/12/02 02:36:48;;;;;;;;;;;;;;;;;;4996443;28;20019;-94
2022/12/02 02:39:13;;;;;;;;;;;;;;;;;;4996704;28;19927;-94
2022/12/02 02:41:41;;;;;;;;;;;;;;;;;;4997181;28;19965;-94
2022/12/02 02:44:07;;;;;;;;;;;;;;;;;;5013685;28;19921;-94
2022/12/02 02:46:33;;;;;;;;;;;;;;;;;;4997100;28;19921;-95
2022/12/02 02:48:59;;;;;;;;;;;;;;;;;;4996844;28;19922;-96
2022/12/02 02:51:25;;;;;;;;;;;;;;;;;;4996600;28;20307;-94
2022/12/02 02:53:52;;;;;;;;;;;;;;;;;;4996512;28;19944;-94
2022/12/02 02:56:18;;;;;;;;;;;;;;;;;;4996556;28;19921;-96
2022/12/02 02:58:44;;;;;;;;;;;;;;;;;;4996391;28;19987;-96
2022/12/02 03:01:10;;;;;;;;;;;;;;;;;;4996914;28;19921;-94
2022/12/02 03:03:36;;;;;;;;;;;;;;;;;;4996910;28;19921;-94
2022/12/02 03:06:05;;;;;;;;;;;;;;;;;;5013087;28;19975;-95
2022/12/02 03:08:31;;;;;;;;;;;;;;;;;;4996434;28;19922;-94
2022/12/02 03:10:57;;;;;;;;;;;;;;;;;;4996394;28;19933;-95
2022/12/02 03:13:25;;;;;;;;;;;;;;;;;;4996040;28;20507;-95
2022/12/02 03:15:51;;;;;;;;;;;;;;;;;;4996193;28;19991;-95
2022/12/02 03:18:17;;;;;;;;;;;;;;;;;;4996252;28;19921;-94
2022/12/02 03:20:43;;;;;;;;;;;;;;;;;;4996219;28;19922;-94
2022/12/02 03:23:08;;;;;;;;;;;;;;;;;;4996096;28;19936;-93
2022/12/02 03:25:34;;;;;;;;;;;;;;;;;;4996323;28;20373;-95
2022/12/02 03:28:00;;;;;;;;;;;;;;;;;;4995407;28;19925;-94
2022/12/02 03:30:26;;;;;;;;;;;;;;;;;;4996023;28;19968;-95
2022/12/02 03:32:52;;;;;;;;;;;;;;;;;;4996245;28;19944;-94
2022/12/02 03:35:18;;;;;;;;;;;;;;;;;;4995782;28;20107;-94
2022/12/02 03:37:45;;;;;;;;;;;;;;;;;;5012531;28;20305;-95
2022/12/02 03:40:14;;;;;;;;;;;;;;;;;;4995793;28;19975;-94
2022/12/02 03:42:39;;;;;;;;;;;;;;;;;;4994912;28;19925;-94
2022/12/02 03:45:06;;;;;;;;;;;;;;;;;;4995831;28;19928;-94
2022/12/02 03:47:35;;;;;;;;;;;;;;;;;;5012053;28;19925;-94
2022/12/02 03:50:01;;;;;;;;;;;;;;;;;;5011823;28;19940;-94
2022/12/02 03:52:27;;;;;;;;;;;;;;;;;;5010995;28;19968;-94
2022/12/02 03:54:53;;;;;;;;;;;;;;;;;;4995825;28;19983;-93
2022/12/02 03:57:18;;;;;;;;;;;;;;;;;;4995407;28;19925;-94
2022/12/02 03:59:44;;;;;;;;;;;;;;;;;;4995571;28;19925;-94
2022/12/02 04:02:10;;;;;;;;;;;;;;;;;;4995814;28;19921;-94
2022/12/02 04:04:39;;;;;;;;;;;;;;;;;;4996381;28;19967;-95
2022/12/02 04:07:05;;;;;;;;;;;;;;;;;;4995896;28;19975;-95
2022/12/02 04:09:32;;;;;;;;;;;;;;;;;;5012196;28;19925;-94
2022/12/02 04:11:58;;;;;;;;;;;;;;;;;;4995463;28;20309;-95
2022/12/02 04:14:24;;;;;;;;;;;;;;;;;;4995603;28;19921;-94
2022/12/02 04:16:50;;;;;;;;;;;;;;;;;;4995826;28;19921;-95
2022/12/02 04:19:16;;;;;;;;;;;;;;;;;;4995638;28;20336;-94
2022/12/02 04:21:42;;;;;;;;;;;;;;;;;;4995747;28;19947;-94
2022/12/02 04:24:08;;;;;;;;;;;;;;;;;;4995354;28;19968;-95
2022/12/02 04:26:34;;;;;;;;;;;;;;;;;;4995584;28;19928;-95
2022/12/02 04:29:00;;;;;;;;;;;;;;;;;;4995496;28;19948;-95
2022/12/02 04:31:26;;;;;;;;;;;;;;;;;;4995582;28;19922;-94
2022/12/02 04:33:52;;;;;;;;;;;;;;;;;;4996122;28;20379;-95
2022/12/02 04:36:18;;;;;;;;;;;;;;;;;;4995743;28;19925;-94
2022/12/02 04:38:44;;;;;;;;;;;;;;;;;;4995636;28;19928;-94
2022/12/02 04:41:10;;;;;;;;;;;;;;;;;;4995388;28;20289;-94
2022/12/02 04:43:36;;;;;;;;;;;;;;;;;;4995509;28;19948;-95
2022/12/02 04:46:02;;;;;;;;;;;;;;;;;;5011507;28;20364;-94
2022/12/02 04:48:28;;;;;;;;;;;;;;;;;;4995535;28;19969;-94
2022/12/02 04:50:57;;;;;;;;;;;;;;;;;;4995710;28;19928;-94
2022/12/02 04:53:23;;;;;;;;;;;;;;;;;;5011517;28;19969;-93
2022/12/02 04:55:51;;;;;;;;;;;;;;;;;;5014689;28;19921;-95
2022/12/02 04:58:17;;;;;;;;;;;;;;;;;;4998927;28;19925;-96
2022/12/02 05:00:43;;;;;;;;;;;;;;;;;;4998778;28;19948;-95
2022/12/02 05:03:10;;;;;;;;;;;;;;;;;;4998768;28;19921;-94
2022/12/02 05:05:37;;;;;;;;;;;;;;;;;;4998995;28;19921;-94
2022/12/02 05:08:04;;;;;;;;;;;;;;;;;;4998503;28;19929;-95
2022/12/02 05:10:30;;;;;;;;;;;;;;;;;;5014728;28;20436;-95
2022/12/02 05:12:56;;;;;;;;;;;;;;;;;;4998366;28;20022;-94
2022/12/02 05:15:25;;;;;;;;;;;;;;;;;;4998417;28;19926;-95
2022/12/02 05:17:54;;;;;;;;;;;;;;;;;;4998299;28;19948;-94
2022/12/02 05:20:20;;;;;;;;;;;;;;;;;;5014239;28;19929;-94
2022/12/02 05:22:47;;;;;;;;;;;;;;;;;;4998363;28;19922;-94
2022/12/02 05:25:13;;;;;;;;;;;;;;;;;;5014435;28;19968;-95
2022/12/02 05:27:39;;;;;;;;;;;;;;;;;;4997947;28;19984;-95
2022/12/02 05:30:06;;;;;;;;;;;;;;;;;;4998285;28;19929;-96
2022/12/02 05:32:32;;;;;;;;;;;;;;;;;;4998281;28;20412;-95
2022/12/02 05:34:58;;;;;;;;;;;;;;;;;;4997832;28;19925;-95
2022/12/02 05:37:24;;;;;;;;;;;;;;;;;;4997878;28;19922;-95
2022/12/02 05:39:50;;;;;;;;;;;;;;;;;;4997751;28;20400;-93
2022/12/02 05:42:18;;;;;;;;;;;;;;;;;;4998152;28;19980;-94
2022/12/02 05:44:44;;;;;;;;;;;;;;;;;;4998372;28;19922;-94
2022/12/02 05:47:20;;;;;;;;;;;;;;;;;;4997679;28;19948;-94
2022/12/02 05:49:46;;;;;;;;;;;;;;;;;;4997680;28;19925;-95
2022/12/02 05:52:12;;;;;;;;;;;;;;;;;;5014151;28;19937;-92
2022/12/02 05:54:38;;;;;;;;;;;;;;;;;;4997665;28;20392;-94
2022/12/02 05:57:04;;;;;;;;;;;;;;;;;;4997167;28;19926;-95
2022/12/02 05:59:33;;;;;;;;;;;;;;;;;;4997933;28;20019;-95
2022/12/02 06:01:59;;;;;;;;;;;;;;;;;;4997519;28;19921;-94
2022/12/02 06:04:27;;;;;;;;;;;;;;;;;;5013202;28;19995;-95
2022/12/02 06:07:13;;;;;;;;;;;;;;;;;;5012596;28;19967;-94
2022/12/02 06:09:42;;;;;;;;;;;;;;;;;;5014007;28;19930;-94
2022/12/02 06:12:07;;;;;;;;;;;;;;;;;;5013468;28;19928;-93
2022/12/02 06:14:34;;;;;;;;;;;;;;;;;;4997998;28;20020;-95
2022/12/02 06:17:03;;;;;;;;;;;;;;;;;;5012424;28;20003;-95
2022/12/02 06:19:29;;;;;;;;;;;;;;;;;;4997513;28;19922;-93
2022/12/02 06:21:55;;;;;;;;;;;;;;;;;;4997087;28;19925;-93
2022/12/02 06:24:24;;;;;;;;;;;;;;;;;;4997574;28;19932;-94
2022/12/02 06:26:50;;;;;;;;;;;;;;;;;;4997102;28;19922;-94
2022/12/02 06:29:16;;;;;;;;;;;;;;;;;;4996834;28;19932;-93
2022/12/02 06:31:45;;;;;;;;;;;;;;;;;;4997503;28;19925;-94
2022/12/02 06:34:14;;;;;;;;;;;;;;;;;;4996986;28;20088;-95
2022/12/02 06:36:40;;;;;;;;;;;;;;;;;;4997298;28;20020;-95
2022/12/02 06:39:06;;;;;;;;;;;;;;;;;;4996727;28;20381;-93
2022/12/02 06:41:35;;;;;;;;;;;;;;;;;;4997504;28;19929;-94
2022/12/02 06:46:46;;;;;;;;;;;;;;;;;;5013328;28;19928;-94
2022/12/02 06:49:12;;;;;;;;;;;;;;;;;;4996665;28;19933;-94
2022/12/02 06:51:37;;;;;;;;;;;;;;;;;;4996728;28;19937;-94
2022/12/02 06:54:03;;;;;;;;;;;;;;;;;;4996491;28;19991;-94
2022/12/02 06:56:29;;;;;;;;;;;;;;;;;;4996807;28;19983;-95
2022/12/02 06:58:55;;;;;;;;;;;;;;;;;;4996726;28;19925;-94
2022/12/02 07:01:21;;;;;;;;;;;;;;;;;;4996284;28;19983;-94
2022/12/02 07:03:47;;;;;;;;;;;;;;;;;;4996875;28;20004;-95
2022/12/02 07:06:13;;;;;;;;;;;;;;;;;;4996787;28;19972;-94
2022/12/02 07:08:39;;;;;;;;;;;;;;;;;;4996193;28;19926;-93
2022/12/02 07:11:05;;;;;;;;;;;;;;;;;;4996551;28;19959;-93
2022/12/02 07:13:41;;;;;;;;;;;;;;;;;;4996574;28;19973;-96
2022/12/02 07:16:17;;;;;;;;;;;;;;;;;;5010604;28;20015;-92
2022/12/02 07:18:43;;;;;;;;;;;;;;;;;;4995676;28;19980;-90
2022/12/02 07:21:09;;;;;;;;;;;;;;;;;;4995416;28;20369;-93
2022/12/02 07:23:35;;;;;;;;;;;;;;;;;;4995502;28;20024;-89
2022/12/02 07:26:02;;;;;;;;;;;;;;;;;;4995318;28;20320;-91
2022/12/02 07:28:28;;;;;;;;;;;;;;;;;;4995224;28;19925;-92
2022/12/02 07:30:54;;;;;;;;;;;;;;;;;;5011849;28;19991;-92
2022/12/02 07:33:20;;;;;;;;;;;;;;;;;;5012116;28;19972;-91
2022/12/02 07:35:46;;;;;;;;;;;;;;;;;;4996039;28;19921;-93
2022/12/02 07:38:12;;;;;;;;;;;;;;;;;;4997796;28;19948;-93
2022/12/02 07:40:41;;;;;;;;;;;;;;;;;;4996729;28;20384;-94
2022/12/02 07:43:07;;;;;;;;;;;;;;;;;;4996782;28;19993;-93
2022/12/02 07:45:33;;;;;;;;;;;;;;;;;;4997094;28;19921;-95
2022/12/02 07:47:59;;;;;;;;;;;;;;;;;;4996586;28;19926;-92
2022/12/02 07:50:25;;;;;;;;;;;;;;;;;;5012296;28;19932;-93
2022/12/02 07:52:51;;;;;;;;;;;;;;;;;;4996599;28;19922;-93
2022/12/02 07:55:18;;;;;;;;;;;;;;;;;;4998154;28;19956;-93
2022/12/02 07:57:44;;;;;;;;;;;;;;;;;;4996124;28;20012;-91
2022/12/02 08:00:10;;;;;;;;;;;;;;;;;;4997258;28;20326;-93
2022/12/02 08:02:36;;;;;;;;;;;;;;;;;;4997315;28;20435;-96
2022/12/02 08:05:02;;;;;;;;;;;;;;;;;;4997012;28;19978;-93
2022/12/02 08:07:28;;;;;;;;;;;;;;;;;;4996994;28;19922;-93
2022/12/02 08:09:54;;;;;;;;;;;;;;;;;;5013522;28;19925;-93
2022/12/02 08:12:20;;;;;;;;;;;;;;;;;;4997025;28;20013;-94
2022/12/02 08:14:46;;;;;;;;;;;;;;;;;;4997386;28;20388;-94
2022/12/02 08:17:12;;;;;;;;;;;;;;;;;;4997408;28;20074;-93
2022/12/02 08:19:40;;;;;;;;;;;;;;;;;;4996513;28;20012;-94
2022/12/02 08:22:09;;;;;;;;;;;;;;;;;;4996260;28;19969;-94
2022/12/02 08:24:35;;;;;;;;;;;;;;;;;;4996476;28;20288;-93
2022/12/02 08:27:01;;;;;;;;;;;;;;;;;;4995115;28;20392;-92
2022/12/02 08:29:27;;;;;;;;;;;;;;;;;;4997904;28;19986;-95
2022/12/02 08:31:53;;;;;;;;;;;;;;;;;;5000767;28;20024;-95
2022/12/02 08:34:26;;;;;;;;;;;;;;;;;;4999300;28;19969;-94
2022/12/02 08:36:52;;;;;;;;;;;;;;;;;;4999524;28;19928;-96
2022/12/02 08:39:18;;;;;;;;;;;;;;;;;;5000326;28;19925;-96
2022/12/02 08:41:44;;;;;;;;;;;;;;;;;;4999351;28;19921;-95
2022/12/02 08:44:10;;;;;;;;;;;;;;;;;;4999867;28;20024;-95
2022/12/02 08:46:36;;;;;;;;;;;;;;;;;;4999311;28;19971;-93
2022/12/02 08:49:02;;;;;;;;;;;;;;;;;;4999567;28;19957;-95
2022/12/02 08:51:28;;;;;;;;;;;;;;;;;;4999003;28;20000;-95
2022/12/02 08:53:55;;;;;;;;;;;;;;;;;;5015467;28;20284;-94
2022/12/02 08:56:21;;;;;;;;;;;;;;;;;;5004090;28;20008;-94
2022/12/02 08:58:47;;;;;;;;;;;;;;;;;;5002725;28;20277;-95
2022/12/02 09:01:15;;;;;;;;;;;;;;;;;;5001722;28;19960;-95
2022/12/02 09:03:44;;;;;;;;;;;;;;;;;;5018553;28;20076;-94
2022/12/02 09:06:10;;;;;;;;;;;;;;;;;;5018700;28;19921;-95
2022/12/02 09:08:36;;;;;;;;;;;;;;;;;;5000674;28;20425;-95
2022/12/02 09:11:05;;;;;;;;;;;;;;;;;;5018171;28;19925;-94
2022/12/02 09:13:33;;;;;;;;;;;;;;;;;;5017903;28;20431;-95
2022/12/02 09:16:02;;;;;;;;;;;;;;;;;;5017861;28;19921;-95
2022/12/02 09:18:28;;;;;;;;;;;;;;;;;;5001693;28;19929;-93
2022/12/02 09:20:54;;;;;;;;;;;;;;;;;;5001599;28;20388;-94
2022/12/02 09:23:20;;;;;;;;;;;;;;;;;;5002115;28;20554;-93
2022/12/02 09:25:46;;;;;;;;;;;;;;;;;;5001597;28;20277;-94
2022/12/02 09:28:24;;;;;;;;;;;;;;;;;;5018392;28;19925;-93
2022/12/02 09:31:00;;;;;;;;;;;;;;;;;;5016905;28;19925;-93
2022/12/02 09:33:28;;;;;;;;;;;;;;;;;;5003131;28;19979;-96
2022/12/02 09:43:47;;;;;;;;;;;;;;;;;;5386751;22;20335;-94
2022/12/02 09:46:13;;;;;;;;;;;;;;;;;;5033885;28;19929;-95
2022/12/02 09:48:55;;;;;;;;;;;;;;;;;;5017402;28;20014;-94
2022/12/02 09:51:24;;;;;;;;;;;;;;;;;;5017145;28;20433;-93
2022/12/02 09:53:50;;;;;;;;;;;;;;;;;;5001324;28;19944;-93
2022/12/02 09:56:16;;;;;;;;;;;;;;;;;;5000644;28;20288;-92
2022/12/02 09:58:42;;;;;;;;;;;;;;;;;;5000341;28;19987;-92
2022/12/02 10:01:08;;;;;;;;;;;;;;;;;;5000612;28;19932;-94
2022/12/02 10:03:33;;;;;;;;;;;;;;;;;;5000658;28;19995;-93
2022/12/02 10:05:59;;;;;;;;;;;;;;;;;;5001172;28;19921;-94
2022/12/02 10:08:25;;;;;;;;;;;;;;;;;;5000840;28;19932;-93
2022/12/02 10:10:55;;;;;;;;;;;;;;;;;;5000316;28;19924;-93
2022/12/02 10:13:23;;;;;;;;;;;;;;;;;;5000751;28;19921;-94
2022/12/02 10:15:52;;;;;;;;;;;;;;;;;;5017546;28;19970;-94
2022/12/02 10:18:19;;;;;;;;;;;;;;;;;;5000762;28;20023;-94
2022/12/02 10:20:45;;;;;;;;;;;;;;;;;;5000097;28;19921;-92
2022/12/02 10:23:11;;;;;;;;;;;;;;;;;;5000634;28;19921;-92
2022/12/02 10:25:40;;;;;;;;;;;;;;;;;;5016902;28;19928;-90
2022/12/02 10:28:08;;;;;;;;;;;;;;;;;;5000023;28;20295;-90
2022/12/02 10:30:33;;;;;;;;;;;;;;;;;;5016170;28;19928;-92
2022/12/02 10:32:59;;;;;;;;;;;;;;;;;;5000025;28;20000;-92
2022/12/02 10:35:25;;;;;;;;;;;;;;;;;;5000160;28;19972;-91
2022/12/02 10:37:53;;;;;;;;;;;;;;;;;;5000856;28;20316;-91
2022/12/02 10:40:18;;;;;;;;;;;;;;;;;;5000273;28;19925;-92
2022/12/02 10:42:44;;;;;;;;;;;;;;;;;;4999703;28;19925;-92
2022/12/02 10:45:10;;;;;;;;;;;;;;;;;;4999521;28;20426;-92
2022/12/02 10:47:39;;;;;;;;;;;;;;;;;;5000011;28;19929;-91
2022/12/02 10:50:05;;;;;;;;;;;;;;;;;;4999366;28;19921;-91
2022/12/02 10:52:31;;;;;;;;;;;;;;;;;;4999235;28;19923;-93
2022/12/02 10:54:57;;;;;;;;;;;;;;;;;;4999688;28;19982;-92
2022/12/02 10:57:23;;;;;;;;;;;;;;;;;;5016010;28;19921;-92
2022/12/02 10:59:50;;;;;;;;;;;;;;;;;;4999585;28;19944;-93
2022/12/02 11:02:17;;;;;;;;;;;;;;;;;;5016052;28;20383;-93
2022/12/02 11:04:43;;;;;;;;;;;;;;;;;;4999543;28;19928;-92
2022/12/02 11:07:09;;;;;;;;;;;;;;;;;;4999254;28;20320;-92
2022/12/02 11:09:35;;;;;;;;;;;;;;;;;;4999149;28;20377;-90
2022/12/02 11:12:01;;;;;;;;;;;;;;;;;;4999154;28;20296;-90
2022/12/02 11:14:26;;;;;;;;;;;;;;;;;;4998864;28;19964;-90
2022/12/02 11:16:52;;;;;;;;;;;;;;;;;;4999462;28;19964;-90
2022/12/02 11:19:18;;;;;;;;;;;;;;;;;;4998964;28;19932;-93
2022/12/02 11:21:44;;;;;;;;;;;;;;;;;;4999867;28;20361;-91
2022/12/02 11:24:10;;;;;;;;;;;;;;;;;;5015710;28;20394;-92
2022/12/02 11:26:36;;;;;;;;;;;;;;;;;;5015248;28;20364;-92
2022/12/02 11:29:02;;;;;;;;;;;;;;;;;;5015037;28;20015;-92
2022/12/02 11:31:28;;;;;;;;;;;;;;;;;;5001062;28;19925;-90
2022/12/02 11:34:00;;;;;;;;;;;;;;;;;;4998933;28;19925;-90
2022/12/02 11:36:26;;;;;;;;;;;;;;;;;;5015092;28;19944;-91
2022/12/02 11:38:52;;;;;;;;;;;;;;;;;;4999084;28;20368;-91
2022/12/02 11:41:18;;;;;;;;;;;;;;;;;;4999429;28;19925;-94
2022/12/02 11:43:44;;;;;;;;;;;;;;;;;;4998897;28;20453;-93
2022/12/02 11:46:11;;;;;;;;;;;;;;;;;;4999869;28;19925;-94
2022/12/02 11:48:37;;;;;;;;;;;;;;;;;;5003790;28;20289;-92
2022/12/02 11:51:06;;;;;;;;;;;;;;;;;;5021063;28;19925;-93
2022/12/02 11:53:41;;;;;;;;;;;;;;;;;;5035923;28;19964;-88
2022/12/02 11:56:07;;;;;;;;;;;;;;;;;;5021462;28;19932;-89
2022/12/02 11:58:33;;;;;;;;;;;;;;;;;;5019294;28;20364;-88
2022/12/02 12:00:59;;;;;;;;;;;;;;;;;;5018890;28;19925;-88
2022/12/02 12:03:25;;;;;;;;;;;;;;;;;;5000669;28;19928;-88
2022/12/02 12:05:51;;;;;;;;;;;;;;;;;;5018201;28;19925;-88
2022/12/02 12:08:17;;;;;;;;;;;;;;;;;;5018736;28;19933;-88
2022/12/02 12:10:43;;;;;;;;;;;;;;;;;;5018375;28;19928;-88
2022/12/02 12:13:09;;;;;;;;;;;;;;;;;;5002388;28;19986;-88
2022/12/02 12:15:35;;;;;;;;;;;;;;;;;;5018724;28;20399;-88
2022/12/02 12:18:01;;;;;;;;;;;;;;;;;;5018389;28;19925;-88
2022/12/02 12:20:26;;;;;;;;;;;;;;;;;;5018206;28;19929;-88
2022/12/02 12:22:52;;;;;;;;;;;;;;;;;;5001871;28;20327;-88
2022/12/02 12:25:18;;;;;;;;;;;;;;;;;;5018541;28;19951;-88
2022/12/02 12:28:03;;;;;;;;;;;;;;;;;;5019080;28;19921;-94
2022/12/02 12:30:28;;;;;;;;;;;;;;;;;;5002873;28;19948;-93
2022/12/02 12:33:03;;;;;;;;;;;;;;;;;;5020069;28;19948;-93
2022/12/02 12:35:35;;;;;;;;;;;;;;;;;;5006331;28;19922;-89
2022/12/02 12:38:01;;;;;;;;;;;;;;;;;;5002981;28;19944;-94
2022/12/02 12:40:27;;;;;;;;;;;;;;;;;;5002562;28;20312;-92
2022/12/02 12:42:54;;;;;;;;;;;;;;;;;;5002086;28;20095;-92
2022/12/02 12:45:20;;;;;;;;;;;;;;;;;;5002259;28;20257;-91
2022/12/02 12:47:46;;;;;;;;;;;;;;;;;;5001520;28;19947;-92
2022/12/02 12:50:12;;;;;;;;;;;;;;;;;;5001789;28;19921;-92
2022/12/02 12:52:41;;;;;;;;;;;;;;;;;;5018004;28;19921;-94
2022/12/02 12:55:07;;;;;;;;;;;;;;;;;;5001577;28;19921;-90
2022/12/02 12:57:33;;;;;;;;;;;;;;;;;;5001723;28;19921;-92
2022/12/02 12:59:59;;;;;;;;;;;;;;;;;;5018337;28;19921;-92
2022/12/02 13:02:25;;;;;;;;;;;;;;;;;;5001681;28;19920;-90
2022/12/02 13:04:51;;;;;;;;;;;;;;;;;;5001610;28;19925;-92
2022/12/02 13:07:17;;;;;;;;;;;;;;;;;;5001620;28;20020;-93
2022/12/02 13:09:43;;;;;;;;;;;;;;;;;;5001532;28;19925;-92
2022/12/02 13:12:09;;;;;;;;;;;;;;;;;;5001645;28;19928;-93
2022/12/02 13:14:35;;;;;;;;;;;;;;;;;;5001395;28;19921;-91
2022/12/02 13:17:01;;;;;;;;;;;;;;;;;;5001738;28;19921;-91
2022/12/02 13:19:27;;;;;;;;;;;;;;;;;;5001169;28;19921;-92
2022/12/02 13:21:53;;;;;;;;;;;;;;;;;;4997414;28;20055;-91
2022/12/02 13:24:19;;;;;;;;;;;;;;;;;;4997790;28;19928;-91
2022/12/02 13:26:45;;;;;;;;;;;;;;;;;;4997572;28;19929;-91
2022/12/02 13:29:11;;;;;;;;;;;;;;;;;;4998143;28;20340;-91
2022/12/02 13:31:37;;;;;;;;;;;;;;;;;;4997368;28;19925;-87
2022/12/02 13:34:02;;;;;;;;;;;;;;;;;;4997907;28;20407;-90
2022/12/02 13:36:28;;;;;;;;;;;;;;;;;;4997386;28;19925;-90
2022/12/02 13:38:54;;;;;;;;;;;;;;;;;;5691521;23;19916;-88
2022/12/02 13:41:20;;;;;;;;;;;;;;;;;;4977899;28;20304;-92
2022/12/02 13:43:46;;;;;;;;;;;;;;;;;;4978331;28;20273;-89
2022/12/02 13:46:12;;;;;;;;;;;;;;;;;;4978037;28;19922;-89
2022/12/02 13:48:38;;;;;;;;;;;;;;;;;;4977731;28;19922;-90
2022/12/02 13:51:04;;;;;;;;;;;;;;;;;;4961698;28;19926;-91
2022/12/02 13:53:30;;;;;;;;;;;;;;;;;;4961919;28;20301;-87
2022/12/02 13:55:56;;;;;;;;;;;;;;;;;;4961668;28;20407;-91
2022/12/02 13:58:22;;;;;;;;;;;;;;;;;;4962099;28;19999;-91
2022/12/02 14:00:48;;;;;;;;;;;;;;;;;;4962373;28;20020;-89
2022/12/02 14:03:13;;;;;;;;;;;;;;;;;;4961624;28;20392;-89
2022/12/02 14:05:39;;;;;;;;;;;;;;;;;;4961380;28;19925;-90
2022/12/02 14:08:05;;;;;;;;;;;;;;;;;;4961499;28;20113;-90
2022/12/02 14:10:31;;;;;;;;;;;;;;;;;;4960601;28;19965;-88
2022/12/02 14:12:57;;;;;;;;;;;;;;;;;;4960961;28;19932;-88
2022/12/02 14:15:23;;;;;;;;;;;;;;;;;;4977590;28;19961;-89
2022/12/02 14:17:49;;;;;;;;;;;;;;;;;;4961009;28;20012;-88
2022/12/02 14:20:15;;;;;;;;;;;;;;;;;;4960717;28;20012;-88
2022/12/02 14:22:41;;;;;;;;;;;;;;;;;;4960873;28;19922;-89
2022/12/02 14:25:07;;;;;;;;;;;;;;;;;;4961029;28;19930;-88
2022/12/02 14:27:32;;;;;;;;;;;;;;;;;;4960313;28;19961;-88
2022/12/02 14:29:58;;;;;;;;;;;;;;;;;;4976716;28;19975;-89
2022/12/02 14:32:24;;;;;;;;;;;;;;;;;;4960703;28;19926;-89
2022/12/02 14:34:50;;;;;;;;;;;;;;;;;;4960735;28;20349;-89
2022/12/02 14:37:16;;;;;;;;;;;;;;;;;;4960452;28;20385;-88
2022/12/02 14:39:42;;;;;;;;;;;;;;;;;;4976409;28;19929;-88
2022/12/02 14:42:08;;;;;;;;;;;;;;;;;;4960406;28;19930;-91
2022/12/02 14:44:34;;;;;;;;;;;;;;;;;;4974846;28;19921;-90
2022/12/02 14:47:00;;;;;;;;;;;;;;;;;;4976557;28;19926;-90
2022/12/02 14:49:26;;;;;;;;;;;;;;;;;;4960349;28;19928;-88
2022/12/02 14:51:51;;;;;;;;;;;;;;;;;;4960776;28;19926;-88
2022/12/02 14:54:17;;;;;;;;;;;;;;;;;;4976685;28;19929;-89
2022/12/02 14:56:43;;;;;;;;;;;;;;;;;;4976436;28;19929;-89
2022/12/02 14:59:09;;;;;;;;;;;;;;;;;;4976786;28;19957;-89
2022/12/02 15:01:35;;;;;;;;;;;;;;;;;;4976744;28;19961;-89
2022/12/02 15:04:01;;;;;;;;;;;;;;;;;;4976343;28;20016;-91
2022/12/02 15:06:27;;;;;;;;;;;;;;;;;;4960329;28;19922;-90
2022/12/02 15:08:53;;;;;;;;;;;;;;;;;;4960312;28;19921;-91
2022/12/02 15:11:19;;;;;;;;;;;;;;;;;;4960433;28;19933;-91
2022/12/02 15:13:45;;;;;;;;;;;;;;;;;;4960303;28;20277;-91
2022/12/02 15:16:11;;;;;;;;;;;;;;;;;;4960952;28;20385;-90
2022/12/02 15:18:37;;;;;;;;;;;;;;;;;;4959522;28;19929;-88
2022/12/02 15:21:03;;;;;;;;;;;;;;;;;;4959896;28;19994;-90
2022/12/02 15:23:28;;;;;;;;;;;;;;;;;;4976112;28;19922;-90
2022/12/02 15:25:54;;;;;;;;;;;;;;;;;;4958975;28;19984;-90
2022/12/02 15:28:20;;;;;;;;;;;;;;;;;;4960073;28;20207;-91
2022/12/02 15:30:46;;;;;;;;;;;;;;;;;;4960127;28;19926;-90
2022/12/02 15:33:13;;;;;;;;;;;;;;;;;;4975513;28;19929;-91
2022/12/02 15:35:41;;;;;;;;;;;;;;;;;;4976513;28;19929;-95
2022/12/02 15:38:07;;;;;;;;;;;;;;;;;;4960261;28;19980;-92
2022/12/02 15:40:35;;;;;;;;;;;;;;;;;;4958704;28;20340;-91
2022/12/02 15:43:01;;;;;;;;;;;;;;;;;;4960612;28;19934;-92
2022/12/02 15:45:27;;;;;;;;;;;;;;;;;;4976552;28;19922;-92
2022/12/02 15:47:53;;;;;;;;;;;;;;;;;;4960075;28;19929;-91
2022/12/02 15:50:18;;;;;;;;;;;;;;;;;;4959824;28;19933;-90
2022/12/02 15:52:44;;;;;;;;;;;;;;;;;;4959551;28;20265;-88
2022/12/02 15:55:10;;;;;;;;;;;;;;;;;;4975841;28;19988;-91
2022/12/02 15:57:36;;;;;;;;;;;;;;;;;;4960082;28;19984;-91
2022/12/02 16:00:02;;;;;;;;;;;;;;;;;;4959546;28;19968;-90
2022/12/02 16:02:28;;;;;;;;;;;;;;;;;;4975767;28;19922;-90
2022/12/02 16:04:54;;;;;;;;;;;;;;;;;;4959068;28;19921;-91
2022/12/02 16:07:20;;;;;;;;;;;;;;;;;;4959576;28;19926;-92
2022/12/02 16:09:46;;;;;;;;;;;;;;;;;;4960153;28;19922;-92
2022/12/02 16:12:12;;;;;;;;;;;;;;;;;;4959766;28;20468;-94
2022/12/02 16:14:38;;;;;;;;;;;;;;;;;;4959117;28;20052;-92
2022/12/02 16:17:04;;;;;;;;;;;;;;;;;;4959599;28;19972;-90
2022/12/02 16:19:30;;;;;;;;;;;;;;;;;;4959676;28;20363;-91
2022/12/02 16:21:55;;;;;;;;;;;;;;;;;;4959836;28;19928;-92
2022/12/02 16:24:21;;;;;;;;;;;;;;;;;;4959287;28;19928;-92
2022/12/02 16:26:47;;;;;;;;;;;;;;;;;;4975749;28;19922;-91
2022/12/02 16:29:13;;;;;;;;;;;;;;;;;;4960075;28;19983;-93
2022/12/02 16:31:39;;;;;;;;;;;;;;;;;;4976060;28;19926;-92
2022/12/02 16:34:05;;;;;;;;;;;;;;;;;;4959509;28;19921;-94
2022/12/02 16:36:34;;;;;;;;;;;;;;;;;;4976340;28;20085;-93
2022/12/02 16:39:00;;;;;;;;;;;;;;;;;;4960098;28;20385;-92
2022/12/02 16:41:26;;;;;;;;;;;;;;;;;;4959649;28;20382;-95
2022/12/02 16:43:52;;;;;;;;;;;;;;;;;;4959545;28;20009;-92
2022/12/02 16:46:18;;;;;;;;;;;;;;;;;;4959839;28;19922;-94
2022/12/02 16:48:47;;;;;;;;;;;;;;;;;;4975559;28;19922;-94
2022/12/02 16:51:13;;;;;;;;;;;;;;;;;;4962167;28;19926;-92
2022/12/02 16:53:39;;;;;;;;;;;;;;;;;;4962873;28;20281;-93